Terminal Aerodrome Forecast
Issued by NWS Blacksburg, VA

Home | Current Version | Previous Version | Text Only | Print | Product List | Glossary On
Versions: 1 2 3 4 5 6 7 8 9 10 11 12 13 14 15 16 17 18 19 20 21 22 23 24 25 26 27 28 29 30 31 32 33 34 35 36 37 38 39 40 41 42
000
FTUS41 KRNK 050312 AAA
TAFDAN
TAF AMD
KDAN 050312Z 0503/0524 20005KT 5SM -SHRA BR BKN035 OVC080
     FM050600 VRB03KT 4SM BR SCT007 BKN080
      TEMPO 0510/0512 2SM BR
     FM051400 04003KT P6SM BKN050
     FM051900 19005KT P6SM VCTS BKN040CB=

USA.gov is the U.S. government's official web portal to all federal, state and local government web resources and services.